sensor_id;sensor_type;location;lat;lon;timestamp;P1;durP1;ratioP1;P2;durP2;ratioP2
9080;SDS011;13509;50.760;6.080;2023-08-17T00:02:01;12.03;;;9.30;;
9080;SDS011;13509;50.760;6.080;2023-08-17T00:04:31;9.70;;;8.30;;
9080;SDS011;13509;50.760;6.080;2023-08-17T00:06:59;11.63;;;9.10;;
9080;SDS011;13509;50.760;6.080;2023-08-17T00:09:27;11.67;;;8.77;;
9080;SDS011;13509;50.760;6.080;2023-08-17T00:11:55;12.13;;;10.93;;
9080;SDS011;13509;50.760;6.080;2023-08-17T00:14:24;16.03;;;10.30;;
9080;SDS011;13509;50.760;6.080;2023-08-17T00:16:53;13.07;;;9.37;;
9080;SDS011;13509;50.760;6.080;2023-08-17T00:19:21;13.07;;;11.47;;
9080;SDS011;13509;50.760;6.080;2023-08-17T00:21:51;15.27;;;12.90;;
9080;SDS011;13509;50.760;6.080;2023-08-17T00:24:19;15.53;;;12.37;;
9080;SDS011;13509;50.760;6.080;2023-08-17T00:26:47;15.43;;;11.13;;
9080;SDS011;13509;50.760;6.080;2023-08-17T00:29:16;16.13;;;13.13;;
9080;SDS011;13509;50.760;6.080;2023-08-17T00:31:44;16.53;;;12.23;;
9080;SDS011;13509;50.760;6.080;2023-08-17T00:34:12;15.67;;;12.40;;
9080;SDS011;13509;50.760;6.080;2023-08-17T00:36:40;15.43;;;13.50;;
9080;SDS011;13509;50.760;6.080;2023-08-17T00:39:10;20.97;;;15.20;;
9080;SDS011;13509;50.760;6.080;2023-08-17T00:41:38;17.03;;;13.77;;
9080;SDS011;13509;50.760;6.080;2023-08-17T00:44:07;14.10;;;12.63;;
9080;SDS011;13509;50.760;6.080;2023-08-17T00:46:35;19.37;;;15.30;;
9080;SDS011;13509;50.760;6.080;2023-08-17T00:49:04;16.80;;;15.10;;
9080;SDS011;13509;50.760;6.080;2023-08-17T00:51:32;17.70;;;13.50;;
9080;SDS011;13509;50.760;6.080;2023-08-17T00:54:02;16.33;;;13.37;;
9080;SDS011;13509;50.760;6.080;2023-08-17T00:56:32;16.73;;;14.10;;
9080;SDS011;13509;50.760;6.080;2023-08-17T00:59:00;17.47;;;14.50;;
9080;SDS011;13509;50.760;6.080;2023-08-17T01:01:28;17.43;;;14.07;;
9080;SDS011;13509;50.760;6.080;2023-08-17T01:03:57;16.10;;;13.73;;
9080;SDS011;13509;50.760;6.080;2023-08-17T01:06:25;15.90;;;14.17;;
9080;SDS011;13509;50.760;6.080;2023-08-17T01:08:53;18.63;;;14.20;;
9080;SDS011;13509;50.760;6.080;2023-08-17T01:11:23;14.83;;;13.33;;
9080;SDS011;13509;50.760;6.080;2023-08-17T01:13:56;18.97;;;15.63;;
9080;SDS011;13509;50.760;6.080;2023-08-17T01:16:28;17.10;;;13.80;;
9080;SDS011;13509;50.760;6.080;2023-08-17T01:18:57;16.07;;;13.67;;
9080;SDS011;13509;50.760;6.080;2023-08-17T01:21:29;16.00;;;14.23;;
9080;SDS011;13509;50.760;6.080;2023-08-17T01:23:59;17.17;;;13.03;;
9080;SDS011;13509;50.760;6.080;2023-08-17T01:26:31;17.30;;;15.20;;
9080;SDS011;13509;50.760;6.080;2023-08-17T01:28:59;21.73;;;16.27;;
9080;SDS011;13509;50.760;6.080;2023-08-17T01:31:29;16.63;;;14.93;;
9080;SDS011;13509;50.760;6.080;2023-08-17T01:34:02;18.43;;;15.60;;
9080;SDS011;13509;50.760;6.080;2023-08-17T01:36:32;18.30;;;15.60;;
9080;SDS011;13509;50.760;6.080;2023-08-17T01:39:02;17.90;;;15.40;;
9080;SDS011;13509;50.760;6.080;2023-08-17T01:41:31;18.83;;;15.20;;
9080;SDS011;13509;50.760;6.080;2023-08-17T01:44:00;18.90;;;16.13;;
9080;SDS011;13509;50.760;6.080;2023-08-17T01:46:30;23.17;;;18.67;;
9080;SDS011;13509;50.760;6.080;2023-08-17T01:48:59;29.37;;;22.43;;
9080;SDS011;13509;50.760;6.080;2023-08-17T01:51:27;27.53;;;22.20;;
9080;SDS011;13509;50.760;6.080;2023-08-17T01:53:55;27.60;;;23.57;;
9080;SDS011;13509;50.760;6.080;2023-08-17T01:56:25;30.60;;;25.57;;
9080;SDS011;13509;50.760;6.080;2023-08-17T01:58:53;31.37;;;25.63;;
9080;SDS011;13509;50.760;6.080;2023-08-17T02:01:21;29.90;;;25.27;;
9080;SDS011;13509;50.760;6.080;2023-08-17T02:03:50;27.13;;;22.33;;
9080;SDS011;13509;50.760;6.080;2023-08-17T02:06:18;28.53;;;21.67;;
9080;SDS011;13509;50.760;6.080;2023-08-17T02:08:46;24.50;;;20.33;;
9080;SDS011;13509;50.760;6.080;2023-08-17T02:11:14;25.57;;;20.23;;
9080;SDS011;13509;50.760;6.080;2023-08-17T02:13:44;21.63;;;17.67;;
9080;SDS011;13509;50.760;6.080;2023-08-17T02:16:12;19.17;;;15.23;;
9080;SDS011;13509;50.760;6.080;2023-08-17T02:18:40;24.97;;;17.00;;
9080;SDS011;13509;50.760;6.080;2023-08-17T02:21:08;16.93;;;14.87;;
9080;SDS011;13509;50.760;6.080;2023-08-17T02:23:37;19.40;;;16.00;;
9080;SDS011;13509;50.760;6.080;2023-08-17T02:26:05;16.03;;;14.33;;
9080;SDS011;13509;50.760;6.080;2023-08-17T02:28:33;21.40;;;15.47;;
9080;SDS011;13509;50.760;6.080;2023-08-17T02:31:03;20.30;;;17.03;;
9080;SDS011;13509;50.760;6.080;2023-08-17T02:33:32;20.77;;;16.17;;
9080;SDS011;13509;50.760;6.080;2023-08-17T02:36:03;18.70;;;15.77;;
9080;SDS011;13509;50.760;6.080;2023-08-17T02:38:31;21.43;;;16.77;;
9080;SDS011;13509;50.760;6.080;2023-08-17T02:40:59;23.90;;;18.07;;
9080;SDS011;13509;50.760;6.080;2023-08-17T02:43:28;18.73;;;16.83;;
9080;SDS011;13509;50.760;6.080;2023-08-17T02:45:56;24.53;;;17.97;;
9080;SDS011;13509;50.760;6.080;2023-08-17T02:48:27;23.47;;;18.37;;
9080;SDS011;13509;50.760;6.080;2023-08-17T02:50:58;21.43;;;19.10;;
9080;SDS011;13509;50.760;6.080;2023-08-17T02:53:26;26.23;;;17.60;;
9080;SDS011;13509;50.760;6.080;2023-08-17T02:55:54;21.57;;;18.90;;
9080;SDS011;13509;50.760;6.080;2023-08-17T02:58:22;21.73;;;19.17;;
9080;SDS011;13509;50.760;6.080;2023-08-17T03:00:51;24.47;;;18.90;;
9080;SDS011;13509;50.760;6.080;2023-08-17T03:03:19;23.23;;;19.60;;
9080;SDS011;13509;50.760;6.080;2023-08-17T03:05:49;27.57;;;19.90;;
9080;SDS011;13509;50.760;6.080;2023-08-17T03:08:17;29.57;;;21.00;;
9080;SDS011;13509;50.760;6.080;2023-08-17T03:10:46;23.37;;;19.20;;
9080;SDS011;13509;50.760;6.080;2023-08-17T03:13:15;23.00;;;19.00;;
9080;SDS011;13509;50.760;6.080;2023-08-17T03:15:43;22.57;;;19.10;;
9080;SDS011;13509;50.760;6.080;2023-08-17T03:18:11;21.87;;;19.47;;
9080;SDS011;13509;50.760;6.080;2023-08-17T03:20:40;25.93;;;21.13;;
9080;SDS011;13509;50.760;6.080;2023-08-17T03:23:09;27.23;;;21.57;;
9080;SDS011;13509;50.760;6.080;2023-08-17T03:25:37;22.50;;;18.93;;
9080;SDS011;13509;50.760;6.080;2023-08-17T03:28:06;27.67;;;19.93;;
9080;SDS011;13509;50.760;6.080;2023-08-17T03:30:34;25.47;;;20.90;;
9080;SDS011;13509;50.760;6.080;2023-08-17T03:33:02;26.80;;;21.47;;
9080;SDS011;13509;50.760;6.080;2023-08-17T03:35:31;23.23;;;20.13;;
9080;SDS011;13509;50.760;6.080;2023-08-17T03:37:59;27.87;;;20.03;;
9080;SDS011;13509;50.760;6.080;2023-08-17T03:40:29;21.20;;;18.73;;
9080;SDS011;13509;50.760;6.080;2023-08-17T03:42:57;27.83;;;19.30;;
9080;SDS011;13509;50.760;6.080;2023-08-17T03:45:25;25.53;;;19.93;;
9080;SDS011;13509;50.760;6.080;2023-08-17T03:47:53;24.77;;;20.33;;
9080;SDS011;13509;50.760;6.080;2023-08-17T03:50:21;26.83;;;20.63;;
9080;SDS011;13509;50.760;6.080;2023-08-17T03:52:50;27.07;;;22.23;;
9080;SDS011;13509;50.760;6.080;2023-08-17T03:55:18;23.83;;;21.30;;
9080;SDS011;13509;50.760;6.080;2023-08-17T03:57:48;25.73;;;20.07;;
9080;SDS011;13509;50.760;6.080;2023-08-17T04:00:16;29.23;;;22.70;;
9080;SDS011;13509;50.760;6.080;2023-08-17T04:02:44;26.57;;;21.70;;
9080;SDS011;13509;50.760;6.080;2023-08-17T04:05:13;25.87;;;21.77;;
9080;SDS011;13509;50.760;6.080;2023-08-17T04:07:41;25.47;;;21.37;;
9080;SDS011;13509;50.760;6.080;2023-08-17T04:10:09;26.93;;;21.60;;
9080;SDS011;13509;50.760;6.080;2023-08-17T04:12:38;28.10;;;22.53;;
9080;SDS011;13509;50.760;6.080;2023-08-17T04:15:07;31.60;;;21.97;;
9080;SDS011;13509;50.760;6.080;2023-08-17T04:17:36;28.10;;;21.17;;
9080;SDS011;13509;50.760;6.080;2023-08-17T04:20:04;30.70;;;23.17;;
9080;SDS011;13509;50.760;6.080;2023-08-17T04:22:33;26.80;;;21.53;;
9080;SDS011;13509;50.760;6.080;2023-08-17T04:25:01;25.67;;;21.23;;
9080;SDS011;13509;50.760;6.080;2023-08-17T04:27:30;28.20;;;21.67;;
9080;SDS011;13509;50.760;6.080;2023-08-17T04:29:58;29.43;;;21.90;;
9080;SDS011;13509;50.760;6.080;2023-08-17T04:32:27;27.27;;;22.03;;
9080;SDS011;13509;50.760;6.080;2023-08-17T04:34:56;24.27;;;20.57;;
9080;SDS011;13509;50.760;6.080;2023-08-17T04:37:24;24.90;;;21.57;;
9080;SDS011;13509;50.760;6.080;2023-08-17T04:39:53;31.37;;;22.13;;
9080;SDS011;13509;50.760;6.080;2023-08-17T04:42:21;27.23;;;22.70;;
9080;SDS011;13509;50.760;6.080;2023-08-17T04:44:51;25.30;;;21.27;;
9080;SDS011;13509;50.760;6.080;2023-08-17T04:47:19;26.60;;;20.23;;
9080;SDS011;13509;50.760;6.080;2023-08-17T04:49:48;29.83;;;21.13;;
9080;SDS011;13509;50.760;6.080;2023-08-17T04:52:17;29.57;;;20.30;;
9080;SDS011;13509;50.760;6.080;2023-08-17T04:54:45;31.67;;;22.03;;
9080;SDS011;13509;50.760;6.080;2023-08-17T04:57:13;28.03;;;22.83;;
9080;SDS011;13509;50.760;6.080;2023-08-17T04:59:42;30.17;;;22.83;;
9080;SDS011;13509;50.760;6.080;2023-08-17T05:02:10;32.73;;;23.57;;
9080;SDS011;13509;50.760;6.080;2023-08-17T05:04:38;29.80;;;23.83;;
9080;SDS011;13509;50.760;6.080;2023-08-17T05:07:09;31.70;;;24.37;;
9080;SDS011;13509;50.760;6.080;2023-08-17T05:09:37;34.77;;;26.53;;
9080;SDS011;13509;50.760;6.080;2023-08-17T05:12:06;34.83;;;25.07;;
9080;SDS011;13509;50.760;6.080;2023-08-17T05:14:34;37.37;;;26.10;;
9080;SDS011;13509;50.760;6.080;2023-08-17T05:17:03;37.27;;;26.60;;
9080;SDS011;13509;50.760;6.080;2023-08-17T05:19:31;39.80;;;26.97;;
9080;SDS011;13509;50.760;6.080;2023-08-17T05:21:59;40.77;;;25.67;;
9080;SDS011;13509;50.760;6.080;2023-08-17T05:24:29;41.83;;;26.33;;
9080;SDS011;13509;50.760;6.080;2023-08-17T05:26:57;37.63;;;26.57;;
9080;SDS011;13509;50.760;6.080;2023-08-17T05:29:25;40.73;;;26.13;;
9080;SDS011;13509;50.760;6.080;2023-08-17T05:31:54;33.67;;;25.20;;
9080;SDS011;13509;50.760;6.080;2023-08-17T05:34:22;37.90;;;25.60;;
9080;SDS011;13509;50.760;6.080;2023-08-17T05:36:50;42.47;;;26.87;;
9080;SDS011;13509;50.760;6.080;2023-08-17T05:39:19;40.27;;;27.10;;
9080;SDS011;13509;50.760;6.080;2023-08-17T05:41:48;39.63;;;27.57;;
9080;SDS011;13509;50.760;6.080;2023-08-17T05:44:17;37.87;;;26.80;;
9080;SDS011;13509;50.760;6.080;2023-08-17T05:46:45;37.70;;;25.93;;
9080;SDS011;13509;50.760;6.080;2023-08-17T05:49:14;41.17;;;27.93;;
9080;SDS011;13509;50.760;6.080;2023-08-17T05:51:43;40.23;;;26.73;;
9080;SDS011;13509;50.760;6.080;2023-08-17T05:54:11;42.40;;;27.80;;
9080;SDS011;13509;50.760;6.080;2023-08-17T05:56:39;45.30;;;28.87;;
9080;SDS011;13509;50.760;6.080;2023-08-17T05:59:12;42.43;;;30.53;;
9080;SDS011;13509;50.760;6.080;2023-08-17T06:01:40;41.80;;;30.00;;
9080;SDS011;13509;50.760;6.080;2023-08-17T06:04:08;42.67;;;30.73;;
9080;SDS011;13509;50.760;6.080;2023-08-17T06:06:37;41.53;;;29.10;;
9080;SDS011;13509;50.760;6.080;2023-08-17T06:09:05;42.77;;;30.57;;
9080;SDS011;13509;50.760;6.080;2023-08-17T06:11:34;50.40;;;32.30;;
9080;SDS011;13509;50.760;6.080;2023-08-17T06:14:03;44.97;;;30.13;;
9080;SDS011;13509;50.760;6.080;2023-08-17T06:16:33;52.47;;;29.97;;
9080;SDS011;13509;50.760;6.080;2023-08-17T06:19:02;52.20;;;28.50;;
9080;SDS011;13509;50.760;6.080;2023-08-17T06:21:30;46.87;;;28.27;;
9080;SDS011;13509;50.760;6.080;2023-08-17T06:23:58;48.03;;;29.83;;
9080;SDS011;13509;50.760;6.080;2023-08-17T06:26:26;44.43;;;27.00;;
9080;SDS011;13509;50.760;6.080;2023-08-17T06:28:55;50.63;;;30.03;;
9080;SDS011;13509;50.760;6.080;2023-08-17T06:31:23;50.80;;;29.40;;
9080;SDS011;13509;50.760;6.080;2023-08-17T06:33:55;55.40;;;31.07;;
9080;SDS011;13509;50.760;6.080;2023-08-17T06:36:23;54.07;;;30.67;;
9080;SDS011;13509;50.760;6.080;2023-08-17T06:38:51;49.60;;;31.67;;
9080;SDS011;13509;50.760;6.080;2023-08-17T06:41:20;58.03;;;30.27;;
9080;SDS011;13509;50.760;6.080;2023-08-17T06:43:48;55.60;;;30.97;;
9080;SDS011;13509;50.760;6.080;2023-08-17T06:46:16;65.10;;;33.80;;
9080;SDS011;13509;50.760;6.080;2023-08-17T06:48:45;57.20;;;32.43;;
9080;SDS011;13509;50.760;6.080;2023-08-17T06:51:14;53.87;;;31.07;;
9080;SDS011;13509;50.760;6.080;2023-08-17T06:53:42;63.03;;;33.40;;
9080;SDS011;13509;50.760;6.080;2023-08-17T06:56:11;60.77;;;35.00;;
9080;SDS011;13509;50.760;6.080;2023-08-17T06:58:39;58.10;;;35.60;;
9080;SDS011;13509;50.760;6.080;2023-08-17T07:01:08;60.47;;;36.50;;
9080;SDS011;13509;50.760;6.080;2023-08-17T07:03:36;63.70;;;36.60;;
9080;SDS011;13509;50.760;6.080;2023-08-17T07:06:04;61.53;;;36.20;;
9080;SDS011;13509;50.760;6.080;2023-08-17T07:08:34;54.83;;;35.37;;
9080;SDS011;13509;50.760;6.080;2023-08-17T07:11:02;60.33;;;37.27;;
9080;SDS011;13509;50.760;6.080;2023-08-17T07:13:31;57.20;;;35.67;;
9080;SDS011;13509;50.760;6.080;2023-08-17T07:16:00;58.03;;;35.13;;
9080;SDS011;13509;50.760;6.080;2023-08-17T07:18:28;60.97;;;35.80;;
9080;SDS011;13509;50.760;6.080;2023-08-17T07:20:56;66.63;;;37.37;;
9080;SDS011;13509;50.760;6.080;2023-08-17T07:23:24;63.60;;;37.07;;
9080;SDS011;13509;50.760;6.080;2023-08-17T07:25:54;62.73;;;35.53;;
9080;SDS011;13509;50.760;6.080;2023-08-17T07:28:22;57.27;;;36.50;;
9080;SDS011;13509;50.760;6.080;2023-08-17T07:30:50;55.93;;;35.57;;
9080;SDS011;13509;50.760;6.080;2023-08-17T07:33:18;59.63;;;39.03;;
9080;SDS011;13509;50.760;6.080;2023-08-17T07:35:47;55.97;;;36.17;;
9080;SDS011;13509;50.760;6.080;2023-08-17T07:38:15;57.37;;;35.93;;
9080;SDS011;13509;50.760;6.080;2023-08-17T07:40:43;54.33;;;35.47;;
9080;SDS011;13509;50.760;6.080;2023-08-17T07:43:13;59.07;;;35.80;;
9080;SDS011;13509;50.760;6.080;2023-08-17T07:45:41;50.30;;;32.27;;
9080;SDS011;13509;50.760;6.080;2023-08-17T07:48:09;51.93;;;32.90;;
9080;SDS011;13509;50.760;6.080;2023-08-17T07:50:38;58.97;;;35.83;;
9080;SDS011;13509;50.760;6.080;2023-08-17T07:53:06;52.83;;;35.53;;
9080;SDS011;13509;50.760;6.080;2023-08-17T07:55:34;55.57;;;35.23;;
9080;SDS011;13509;50.760;6.080;2023-08-17T07:58:03;55.33;;;37.13;;
9080;SDS011;13509;50.760;6.080;2023-08-17T08:00:34;56.27;;;37.43;;
9080;SDS011;13509;50.760;6.080;2023-08-17T08:03:02;59.47;;;37.27;;
9080;SDS011;13509;50.760;6.080;2023-08-17T08:05:31;57.87;;;37.73;;
9080;SDS011;13509;50.760;6.080;2023-08-17T08:07:59;54.67;;;37.67;;
9080;SDS011;13509;50.760;6.080;2023-08-17T08:10:27;59.60;;;36.57;;
9080;SDS011;13509;50.760;6.080;2023-08-17T08:12:56;61.20;;;37.00;;
9080;SDS011;13509;50.760;6.080;2023-08-17T08:15:24;56.03;;;35.97;;
9080;SDS011;13509;50.760;6.080;2023-08-17T08:17:54;51.87;;;36.20;;
9080;SDS011;13509;50.760;6.080;2023-08-17T08:20:22;50.47;;;35.50;;
9080;SDS011;13509;50.760;6.080;2023-08-17T08:22:50;56.33;;;33.67;;
9080;SDS011;13509;50.760;6.080;2023-08-17T08:25:18;66.43;;;33.00;;
9080;SDS011;13509;50.760;6.080;2023-08-17T08:27:46;41.47;;;28.93;;
9080;SDS011;13509;50.760;6.080;2023-08-17T08:30:15;42.57;;;28.93;;
9080;SDS011;13509;50.760;6.080;2023-08-17T08:32:44;46.93;;;31.37;;
9080;SDS011;13509;50.760;6.080;2023-08-17T08:35:14;44.27;;;31.47;;
9080;SDS011;13509;50.760;6.080;2023-08-17T08:37:42;38.77;;;28.83;;
9080;SDS011;13509;50.760;6.080;2023-08-17T08:40:10;41.47;;;29.37;;
9080;SDS011;13509;50.760;6.080;2023-08-17T08:42:40;40.73;;;28.93;;
9080;SDS011;13509;50.760;6.080;2023-08-17T08:45:08;42.13;;;28.77;;
9080;SDS011;13509;50.760;6.080;2023-08-17T08:47:37;41.30;;;27.97;;
9080;SDS011;13509;50.760;6.080;2023-08-17T08:50:06;45.83;;;29.03;;
9080;SDS011;13509;50.760;6.080;2023-08-17T08:52:36;47.47;;;31.00;;
9080;SDS011;13509;50.760;6.080;2023-08-17T08:55:10;44.87;;;29.30;;
9080;SDS011;13509;50.760;6.080;2023-08-17T08:57:39;43.50;;;28.93;;
9080;SDS011;13509;50.760;6.080;2023-08-17T09:00:09;40.27;;;28.30;;
9080;SDS011;13509;50.760;6.080;2023-08-17T09:02:39;38.13;;;26.53;;
9080;SDS011;13509;50.760;6.080;2023-08-17T09:05:08;49.93;;;28.60;;
9080;SDS011;13509;50.760;6.080;2023-08-17T09:07:38;39.60;;;26.37;;
9080;SDS011;13509;50.760;6.080;2023-08-17T09:10:07;38.93;;;28.37;;
9080;SDS011;13509;50.760;6.080;2023-08-17T09:12:36;37.67;;;25.57;;
9080;SDS011;13509;50.760;6.080;2023-08-17T09:15:07;38.43;;;25.47;;
9080;SDS011;13509;50.760;6.080;2023-08-17T09:17:35;40.07;;;28.67;;
9080;SDS011;13509;50.760;6.080;2023-08-17T09:20:04;35.43;;;26.27;;
9080;SDS011;13509;50.760;6.080;2023-08-17T09:22:37;38.13;;;27.43;;
9080;SDS011;13509;50.760;6.080;2023-08-17T09:25:07;36.97;;;26.03;;
9080;SDS011;13509;50.760;6.080;2023-08-17T09:27:36;32.20;;;25.67;;
9080;SDS011;13509;50.760;6.080;2023-08-17T09:30:05;40.30;;;27.30;;
9080;SDS011;13509;50.760;6.080;2023-08-17T09:32:34;42.03;;;26.67;;
9080;SDS011;13509;50.760;6.080;2023-08-17T09:35:02;35.87;;;25.47;;
9080;SDS011;13509;50.760;6.080;2023-08-17T09:37:31;34.87;;;24.60;;
9080;SDS011;13509;50.760;6.080;2023-08-17T09:40:00;35.90;;;23.73;;
9080;SDS011;13509;50.760;6.080;2023-08-17T09:42:30;36.43;;;23.93;;
9080;SDS011;13509;50.760;6.080;2023-08-17T09:45:02;37.83;;;25.60;;
9080;SDS011;13509;50.760;6.080;2023-08-17T09:47:30;36.97;;;26.33;;
9080;SDS011;13509;50.760;6.080;2023-08-17T09:49:59;37.00;;;25.67;;
9080;SDS011;13509;50.760;6.080;2023-08-17T09:52:27;40.87;;;26.43;;
9080;SDS011;13509;50.760;6.080;2023-08-17T09:54:56;31.00;;;23.50;;
9080;SDS011;13509;50.760;6.080;2023-08-17T09:57:27;35.87;;;24.20;;
9080;SDS011;13509;50.760;6.080;2023-08-17T09:59:56;36.33;;;26.80;;
9080;SDS011;13509;50.760;6.080;2023-08-17T10:02:25;40.90;;;26.33;;
9080;SDS011;13509;50.760;6.080;2023-08-17T10:04:55;37.00;;;25.63;;
9080;SDS011;13509;50.760;6.080;2023-08-17T10:07:29;36.77;;;26.13;;
9080;SDS011;13509;50.760;6.080;2023-08-17T10:10:00;36.27;;;26.33;;
9080;SDS011;13509;50.760;6.080;2023-08-17T10:12:31;33.20;;;24.93;;
9080;SDS011;13509;50.760;6.080;2023-08-17T10:15:03;30.20;;;24.63;;
9080;SDS011;13509;50.760;6.080;2023-08-17T10:17:34;37.03;;;27.47;;
9080;SDS011;13509;50.760;6.080;2023-08-17T10:20:03;37.40;;;26.70;;
9080;SDS011;13509;50.760;6.080;2023-08-17T10:22:33;36.00;;;25.17;;
9080;SDS011;13509;50.760;6.080;2023-08-17T10:25:05;29.73;;;22.90;;
9080;SDS011;13509;50.760;6.080;2023-08-17T10:27:34;35.93;;;27.20;;
9080;SDS011;13509;50.760;6.080;2023-08-17T10:30:04;34.97;;;26.83;;
9080;SDS011;13509;50.760;6.080;2023-08-17T10:32:34;36.87;;;26.70;;
9080;SDS011;13509;50.760;6.080;2023-08-17T10:35:03;36.87;;;28.43;;
9080;SDS011;13509;50.760;6.080;2023-08-17T10:37:32;33.63;;;25.50;;
9080;SDS011;13509;50.760;6.080;2023-08-17T10:40:00;34.23;;;22.93;;
9080;SDS011;13509;50.760;6.080;2023-08-17T10:42:30;30.90;;;22.73;;
9080;SDS011;13509;50.760;6.080;2023-08-17T10:44:59;33.60;;;23.53;;
9080;SDS011;13509;50.760;6.080;2023-08-17T10:47:31;32.73;;;22.63;;
9080;SDS011;13509;50.760;6.080;2023-08-17T10:50:03;30.07;;;22.27;;
9080;SDS011;13509;50.760;6.080;2023-08-17T10:52:32;34.40;;;24.97;;
9080;SDS011;13509;50.760;6.080;2023-08-17T10:55:02;29.63;;;22.60;;
9080;SDS011;13509;50.760;6.080;2023-08-17T10:57:31;29.90;;;23.10;;
9080;SDS011;13509;50.760;6.080;2023-08-17T11:02:55;32.23;;;22.70;;
9080;SDS011;13509;50.760;6.080;2023-08-17T11:08:19;27.67;;;22.47;;
9080;SDS011;13509;50.760;6.080;2023-08-17T11:10:48;34.33;;;22.80;;
9080;SDS011;13509;50.760;6.080;2023-08-17T11:13:16;33.30;;;24.20;;
9080;SDS011;13509;50.760;6.080;2023-08-17T11:15:45;27.27;;;21.47;;
9080;SDS011;13509;50.760;6.080;2023-08-17T11:18:16;31.17;;;23.13;;
9080;SDS011;13509;50.760;6.080;2023-08-17T11:20:44;29.77;;;23.50;;
9080;SDS011;13509;50.760;6.080;2023-08-17T11:23:13;31.40;;;23.80;;
9080;SDS011;13509;50.760;6.080;2023-08-17T11:25:41;28.53;;;22.47;;
9080;SDS011;13509;50.760;6.080;2023-08-17T11:28:10;32.50;;;24.37;;
9080;SDS011;13509;50.760;6.080;2023-08-17T11:30:40;33.53;;;24.53;;
9080;SDS011;13509;50.760;6.080;2023-08-17T11:33:13;28.63;;;23.17;;
9080;SDS011;13509;50.760;6.080;2023-08-17T11:35:42;32.20;;;23.60;;
9080;SDS011;13509;50.760;6.080;2023-08-17T11:38:12;32.97;;;25.37;;
9080;SDS011;13509;50.760;6.080;2023-08-17T11:40:40;31.37;;;25.33;;
9080;SDS011;13509;50.760;6.080;2023-08-17T11:43:08;29.30;;;24.30;;
9080;SDS011;13509;50.760;6.080;2023-08-17T11:45:37;32.20;;;25.13;;
9080;SDS011;13509;50.760;6.080;2023-08-17T11:48:07;32.67;;;25.50;;
9080;SDS011;13509;50.760;6.080;2023-08-17T11:50:37;35.17;;;26.53;;
9080;SDS011;13509;50.760;6.080;2023-08-17T11:53:08;28.93;;;23.83;;
9080;SDS011;13509;50.760;6.080;2023-08-17T11:55:36;33.63;;;25.03;;
9080;SDS011;13509;50.760;6.080;2023-08-17T11:58:04;34.43;;;25.07;;
9080;SDS011;13509;50.760;6.080;2023-08-17T12:00:36;38.47;;;26.10;;
9080;SDS011;13509;50.760;6.080;2023-08-17T12:03:04;37.80;;;27.33;;
9080;SDS011;13509;50.760;6.080;2023-08-17T12:05:33;34.17;;;26.90;;
9080;SDS011;13509;50.760;6.080;2023-08-17T12:08:01;36.67;;;28.57;;
9080;SDS011;13509;50.760;6.080;2023-08-17T12:10:32;39.47;;;28.67;;
9080;SDS011;13509;50.760;6.080;2023-08-17T12:13:00;39.30;;;29.60;;
9080;SDS011;13509;50.760;6.080;2023-08-17T12:15:30;37.80;;;28.30;;
9080;SDS011;13509;50.760;6.080;2023-08-17T12:17:59;37.63;;;28.67;;
9080;SDS011;13509;50.760;6.080;2023-08-17T12:20:27;38.83;;;28.73;;
9080;SDS011;13509;50.760;6.080;2023-08-17T12:22:58;39.00;;;28.47;;
9080;SDS011;13509;50.760;6.080;2023-08-17T12:25:26;38.30;;;26.57;;
9080;SDS011;13509;50.760;6.080;2023-08-17T12:27:58;32.50;;;25.47;;
9080;SDS011;13509;50.760;6.080;2023-08-17T12:30:28;38.13;;;26.80;;
9080;SDS011;13509;50.760;6.080;2023-08-17T12:32:57;31.37;;;24.80;;
9080;SDS011;13509;50.760;6.080;2023-08-17T12:35:26;34.27;;;25.03;;
9080;SDS011;13509;50.760;6.080;2023-08-17T12:37:54;35.80;;;24.33;;
9080;SDS011;13509;50.760;6.080;2023-08-17T12:40:23;34.80;;;26.33;;
9080;SDS011;13509;50.760;6.080;2023-08-17T12:42:51;35.87;;;26.63;;
9080;SDS011;13509;50.760;6.080;2023-08-17T12:45:20;32.77;;;26.10;;
9080;SDS011;13509;50.760;6.080;2023-08-17T12:47:54;40.53;;;26.97;;
9080;SDS011;13509;50.760;6.080;2023-08-17T12:50:22;36.60;;;27.43;;
9080;SDS011;13509;50.760;6.080;2023-08-17T12:52:50;38.67;;;28.40;;
9080;SDS011;13509;50.760;6.080;2023-08-17T12:55:19;38.50;;;26.57;;
9080;SDS011;13509;50.760;6.080;2023-08-17T12:57:47;36.60;;;27.17;;
9080;SDS011;13509;50.760;6.080;2023-08-17T13:00:15;33.40;;;25.03;;
9080;SDS011;13509;50.760;6.080;2023-08-17T13:02:45;35.23;;;25.17;;
9080;SDS011;13509;50.760;6.080;2023-08-17T13:05:17;34.33;;;27.27;;
9080;SDS011;13509;50.760;6.080;2023-08-17T13:07:45;40.10;;;27.33;;
9080;SDS011;13509;50.760;6.080;2023-08-17T13:10:14;34.87;;;25.87;;
9080;SDS011;13509;50.760;6.080;2023-08-17T13:12:42;33.47;;;24.70;;
9080;SDS011;13509;50.760;6.080;2023-08-17T13:15:10;37.20;;;26.17;;
9080;SDS011;13509;50.760;6.080;2023-08-17T13:17:39;33.97;;;25.80;;
9080;SDS011;13509;50.760;6.080;2023-08-17T13:20:09;30.80;;;24.87;;
9080;SDS011;13509;50.760;6.080;2023-08-17T13:22:38;33.03;;;25.97;;
9080;SDS011;13509;50.760;6.080;2023-08-17T13:25:06;34.63;;;27.03;;
9080;SDS011;13509;50.760;6.080;2023-08-17T13:27:34;30.60;;;24.90;;
9080;SDS011;13509;50.760;6.080;2023-08-17T13:30:03;28.60;;;23.83;;
9080;SDS011;13509;50.760;6.080;2023-08-17T13:32:31;30.97;;;22.13;;
9080;SDS011;13509;50.760;6.080;2023-08-17T13:35:00;35.40;;;26.80;;
9080;SDS011;13509;50.760;6.080;2023-08-17T13:37:30;33.23;;;25.47;;
9080;SDS011;13509;50.760;6.080;2023-08-17T13:39:58;32.27;;;25.03;;
9080;SDS011;13509;50.760;6.080;2023-08-17T13:42:27;39.30;;;26.23;;
9080;SDS011;13509;50.760;6.080;2023-08-17T13:44:55;41.70;;;29.83;;
9080;SDS011;13509;50.760;6.080;2023-08-17T13:47:24;35.90;;;26.27;;
9080;SDS011;13509;50.760;6.080;2023-08-17T13:49:52;42.20;;;24.73;;
9080;SDS011;13509;50.760;6.080;2023-08-17T13:52:22;36.87;;;26.43;;
9080;SDS011;13509;50.760;6.080;2023-08-17T13:54:52;36.67;;;27.57;;
9080;SDS011;13509;50.760;6.080;2023-08-17T13:57:20;38.13;;;27.90;;
9080;SDS011;13509;50.760;6.080;2023-08-17T13:59:48;42.20;;;28.57;;
9080;SDS011;13509;50.760;6.080;2023-08-17T14:02:17;44.67;;;28.50;;
9080;SDS011;13509;50.760;6.080;2023-08-17T14:04:46;40.90;;;27.77;;
9080;SDS011;13509;50.760;6.080;2023-08-17T14:07:14;40.37;;;28.50;;
9080;SDS011;13509;50.760;6.080;2023-08-17T14:09:42;39.53;;;27.63;;
9080;SDS011;13509;50.760;6.080;2023-08-17T14:12:32;35.30;;;27.27;;
9080;SDS011;13509;50.760;6.080;2023-08-17T14:15:00;42.40;;;28.30;;
9080;SDS011;13509;50.760;6.080;2023-08-17T14:17:29;43.53;;;29.87;;
9080;SDS011;13509;50.760;6.080;2023-08-17T14:19:57;41.67;;;28.13;;
9080;SDS011;13509;50.760;6.080;2023-08-17T14:22:25;41.67;;;28.63;;
9080;SDS011;13509;50.760;6.080;2023-08-17T14:24:54;36.10;;;27.23;;
9080;SDS011;13509;50.760;6.080;2023-08-17T14:27:22;38.17;;;26.03;;
9080;SDS011;13509;50.760;6.080;2023-08-17T14:29:52;38.90;;;27.00;;
9080;SDS011;13509;50.760;6.080;2023-08-17T14:32:20;35.13;;;25.57;;
9080;SDS011;13509;50.760;6.080;2023-08-17T14:34:48;38.07;;;27.73;;
9080;SDS011;13509;50.760;6.080;2023-08-17T14:37:17;35.93;;;25.27;;
9080;SDS011;13509;50.760;6.080;2023-08-17T14:39:50;38.60;;;26.07;;
9080;SDS011;13509;50.760;6.080;2023-08-17T14:42:18;35.40;;;25.53;;
9080;SDS011;13509;50.760;6.080;2023-08-17T14:44:47;36.70;;;26.60;;
9080;SDS011;13509;50.760;6.080;2023-08-17T14:47:16;41.30;;;29.57;;
9080;SDS011;13509;50.760;6.080;2023-08-17T14:49:46;39.53;;;28.57;;
9080;SDS011;13509;50.760;6.080;2023-08-17T14:52:15;39.30;;;28.03;;